Time;durP1;ratioP1;P1;durP2;ratioP2;P2;SDS_P1;SDS_P2;PMS_P1;PMS_P2;Temp;Humidity;BMP_temperature;BMP_pressure;BME280_temperature;BME280_humidity;BME280_pressure;Samples;Min_cycle;Max_cycle;Signal;HPM_P1;HPM_P2
2021/08/20 00:00:40;;;;;;;0.35;0.35;;;18.30;99.90;;;;;;4400323;32;20086;-67
2021/08/20 00:03:06;;;;;;;0.45;0.40;;;18.30;99.90;;;;;;4408956;32;20085;-67
2021/08/20 00:05:32;;;;;;;0.50;0.50;;;18.30;99.90;;;;;;4414517;32;20081;-67
2021/08/20 00:07:57;;;;;;;0.50;0.50;;;18.30;99.90;;;;;;4414620;32;20073;-68
2021/08/20 00:10:23;;;;;;;0.40;0.40;;;18.30;99.90;;;;;;4400743;32;20069;-67
2021/08/20 00:12:48;;;;;;;0.50;0.50;;;18.30;99.90;;;;;;4415417;32;20069;-68
2021/08/20 00:15:14;;;;;;;0.20;0.20;;;18.30;99.90;;;;;;4415030;32;20468;-67
2021/08/20 00:17:39;;;;;;;1.55;0.57;;;18.30;99.90;;;;;;4415280;32;20073;-67
2021/08/20 00:20:06;;;;;;;1.27;0.70;;;18.30;99.90;;;;;;4415390;32;20132;-66
2021/08/20 00:22:31;;;;;;;0.32;0.32;;;18.30;99.90;;;;;;4416191;32;20077;-67
2021/08/20 00:24:56;;;;;;;0.50;0.50;;;18.30;99.90;;;;;;4414437;32;20396;-67
2021/08/20 00:27:22;;;;;;;2.70;1.33;;;18.30;99.90;;;;;;4414602;32;20074;-67
2021/08/20 00:29:47;;;;;;;7.37;0.75;;;18.30;99.90;;;;;;4414772;32;20112;-67
2021/08/20 00:32:13;;;;;;;0.50;0.50;;;18.30;99.90;;;;;;4413401;32;20081;-67
2021/08/20 00:34:38;;;;;;;0.35;0.35;;;18.30;99.90;;;;;;4408707;32;20529;-67
2021/08/20 00:37:04;;;;;;;2.40;0.80;;;18.30;99.90;;;;;;4399368;32;20069;-67
2021/08/20 00:39:29;;;;;;;2.92;0.52;;;18.40;99.90;;;;;;4398662;32;20439;-66
2021/08/20 00:41:55;;;;;;;1.02;0.95;;;18.30;99.90;;;;;;4385570;32;20078;-67
2021/08/20 00:44:21;;;;;;;1.10;0.65;;;18.30;99.90;;;;;;4400455;32;20121;-66
2021/08/20 00:46:47;;;;;;;1.25;1.00;;;18.30;99.90;;;;;;4399635;32;20074;-66
2021/08/20 00:49:13;;;;;;;2.08;1.20;;;18.30;99.90;;;;;;4400063;32;20518;-66
2021/08/20 00:51:40;;;;;;;0.47;0.47;;;18.30;99.90;;;;;;4386381;32;20069;-67
2021/08/20 00:54:09;;;;;;;0.50;0.50;;;18.30;99.90;;;;;;4400375;32;20082;-67
2021/08/20 00:56:36;;;;;;;0.50;0.50;;;18.40;99.90;;;;;;4398838;32;20082;-66
2021/08/20 00:59:02;;;;;;;0.30;0.30;;;18.30;99.90;;;;;;4403277;32;20510;-67
2021/08/20 01:01:27;;;;;;;2.60;0.60;;;18.30;99.90;;;;;;4413251;32;20073;-67
2021/08/20 01:03:53;;;;;;;0.50;0.50;;;18.20;99.90;;;;;;4413816;32;20136;-69
2021/08/20 01:06:18;;;;;;;1.58;0.88;;;18.30;99.90;;;;;;4414495;32;20069;-67
2021/08/20 01:08:44;;;;;;;0.50;0.50;;;18.30;99.90;;;;;;4414688;32;20120;-66
2021/08/20 01:11:11;;;;;;;0.55;0.55;;;18.30;99.90;;;;;;4413992;32;20129;-65
2021/08/20 01:13:40;;;;;;;0.65;0.50;;;18.20;99.90;;;;;;4401358;32;20077;-67
2021/08/20 01:16:06;;;;;;;0.40;0.40;;;18.20;99.90;;;;;;4414439;32;20081;-66
2021/08/20 01:18:34;;;;;;;1.35;0.52;;;18.10;99.90;;;;;;4400090;32;20535;-67
2021/08/20 01:21:03;;;;;;;0.35;0.35;;;18.00;99.90;;;;;;4413869;32;20069;-66
2021/08/20 01:23:29;;;;;;;0.40;0.40;;;18.00;99.90;;;;;;4401016;32;20129;-66
2021/08/20 01:25:55;;;;;;;0.30;0.30;;;17.90;99.90;;;;;;4400292;32;20081;-67
2021/08/20 01:28:24;;;;;;;0.40;0.40;;;17.90;99.90;;;;;;4415353;32;20062;-68
2021/08/20 01:30:51;;;;;;;0.30;0.30;;;17.90;99.90;;;;;;4400545;32;20176;-66
2021/08/20 01:33:18;;;;;;;0.57;0.43;;;17.90;99.90;;;;;;4400413;32;20481;-66
2021/08/20 01:35:44;;;;;;;0.62;0.32;;;17.90;99.90;;;;;;4386941;32;20070;-67
2021/08/20 01:38:09;;;;;;;0.37;0.37;;;17.90;99.90;;;;;;4399075;32;20137;-66
2021/08/20 01:40:35;;;;;;;1.50;0.70;;;17.80;99.90;;;;;;4399563;32;20065;-67
2021/08/20 01:43:00;;;;;;;0.20;0.20;;;17.80;99.90;;;;;;4384801;32;20083;-67
2021/08/20 01:45:26;;;;;;;0.30;0.30;;;17.80;99.90;;;;;;4397755;32;20178;-67
2021/08/20 01:47:51;;;;;;;0.28;0.28;;;17.80;99.90;;;;;;4400791;32;20074;-67
2021/08/20 01:50:17;;;;;;;0.60;0.50;;;17.80;99.90;;;;;;4400885;32;20527;-66
2021/08/20 01:52:43;;;;;;;0.30;0.30;;;17.80;99.90;;;;;;4387337;32;20079;-67
2021/08/20 01:55:10;;;;;;;0.30;0.30;;;17.80;99.90;;;;;;4401038;32;20082;-67
2021/08/20 01:57:37;;;;;;;0.65;0.50;;;17.80;99.90;;;;;;4388427;32;20061;-66
2021/08/20 02:00:05;;;;;;;0.30;0.30;;;17.70;99.90;;;;;;4401184;32;20506;-66
2021/08/20 02:02:31;;;;;;;0.35;0.35;;;17.70;99.90;;;;;;4406554;32;20074;-66
2021/08/20 02:04:56;;;;;;;0.62;0.50;;;17.60;99.90;;;;;;4417122;32;20061;-66
2021/08/20 02:07:21;;;;;;;0.30;0.30;;;17.70;99.90;;;;;;4415988;32;20124;-67
2021/08/20 02:09:47;;;;;;;0.55;0.40;;;17.70;99.90;;;;;;4416549;32;20057;-66
2021/08/20 02:12:14;;;;;;;0.20;0.20;;;17.70;99.90;;;;;;4415587;32;20065;-67
2021/08/20 02:14:39;;;;;;;0.30;0.30;;;17.80;99.90;;;;;;4402565;32;20078;-66
2021/08/20 02:17:05;;;;;;;0.30;0.30;;;17.80;99.90;;;;;;4415099;32;20069;-67
2021/08/20 02:19:30;;;;;;;0.40;0.40;;;17.70;99.90;;;;;;4417432;32;20076;-66
2021/08/20 02:21:56;;;;;;;0.50;0.50;;;17.70;99.90;;;;;;4416411;32;20125;-67
2021/08/20 02:24:21;;;;;;;0.52;0.30;;;17.70;99.90;;;;;;4416210;32;20082;-67
2021/08/20 02:26:47;;;;;;;0.40;0.40;;;17.70;99.90;;;;;;4416749;32;20124;-67
2021/08/20 02:29:12;;;;;;;0.30;0.30;;;17.70;99.90;;;;;;4415711;32;20069;-67
2021/08/20 02:31:38;;;;;;;0.85;0.50;;;17.70;99.90;;;;;;4415833;32;20109;-67
2021/08/20 02:34:03;;;;;;;3.92;0.68;;;17.70;99.90;;;;;;4416893;32;20082;-66
2021/08/20 02:36:29;;;;;;;0.47;0.47;;;17.70;99.90;;;;;;4416881;32;20428;-68
2021/08/20 02:38:55;;;;;;;0.35;0.35;;;17.70;99.90;;;;;;4415624;32;20073;-66
2021/08/20 02:41:20;;;;;;;0.30;0.30;;;17.70;99.90;;;;;;4416201;32;20065;-66
2021/08/20 02:43:46;;;;;;;0.30;0.30;;;17.70;99.90;;;;;;4415871;32;20070;-66
2021/08/20 02:46:11;;;;;;;0.73;0.50;;;17.80;99.90;;;;;;4415101;32;20070;-66
2021/08/20 02:48:37;;;;;;;0.20;0.20;;;17.80;99.90;;;;;;4415466;32;20085;-66
2021/08/20 02:51:02;;;;;;;0.95;0.70;;;17.80;99.90;;;;;;4415135;32;20066;-66
2021/08/20 02:53:28;;;;;;;0.37;0.37;;;17.80;99.90;;;;;;4416176;32;20070;-67
2021/08/20 02:55:53;;;;;;;0.35;0.35;;;17.70;99.90;;;;;;4415716;32;20061;-67
2021/08/20 02:58:19;;;;;;;0.40;0.40;;;17.70;99.90;;;;;;4402270;32;20510;-67
2021/08/20 03:00:44;;;;;;;0.62;0.45;;;17.70;99.90;;;;;;4415925;32;20078;-67
2021/08/20 03:03:11;;;;;;;0.50;0.50;;;17.70;99.90;;;;;;4414957;32;20416;-67
2021/08/20 03:05:36;;;;;;;0.30;0.30;;;17.70;99.90;;;;;;4415760;32;20061;-67
2021/08/20 03:08:02;;;;;;;0.30;0.30;;;17.80;99.90;;;;;;4415427;32;20086;-66
2021/08/20 03:10:28;;;;;;;0.30;0.30;;;17.70;99.90;;;;;;4402485;32;20124;-67
2021/08/20 03:12:54;;;;;;;0.55;0.40;;;17.70;99.90;;;;;;4416536;32;20074;-66
2021/08/20 03:15:19;;;;;;;0.57;0.52;;;17.70;99.90;;;;;;4401712;32;20065;-70
2021/08/20 03:17:45;;;;;;;0.40;0.40;;;17.70;99.90;;;;;;4401962;32;20073;-67
2021/08/20 03:20:11;;;;;;;0.50;0.50;;;17.80;99.90;;;;;;4416041;32;20070;-67
2021/08/20 03:22:36;;;;;;;0.60;0.52;;;17.80;99.90;;;;;;4415469;32;20069;-66
2021/08/20 03:25:02;;;;;;;0.45;0.45;;;17.90;99.90;;;;;;4416591;32;20066;-66
2021/08/20 03:27:28;;;;;;;0.57;0.50;;;17.80;99.90;;;;;;4416133;32;20073;-66
2021/08/20 03:29:53;;;;;;;0.40;0.40;;;17.90;99.90;;;;;;4415324;32;20455;-66
2021/08/20 03:32:19;;;;;;;0.37;0.37;;;18.00;99.90;;;;;;4414815;32;20077;-67
2021/08/20 03:34:45;;;;;;;0.37;0.37;;;18.00;99.90;;;;;;4408838;32;20058;-66
2021/08/20 03:37:10;;;;;;;0.30;0.30;;;17.90;99.90;;;;;;4403879;32;20526;-67
2021/08/20 03:39:36;;;;;;;0.73;0.50;;;17.90;99.90;;;;;;4401352;32;20057;-66
2021/08/20 03:42:01;;;;;;;0.40;0.40;;;17.80;99.90;;;;;;4414684;32;20081;-66
2021/08/20 03:44:27;;;;;;;0.37;0.37;;;17.90;99.90;;;;;;4416150;32;20070;-66
2021/08/20 03:46:52;;;;;;;0.30;0.30;;;17.80;99.90;;;;;;4401954;32;20590;-66
2021/08/20 03:49:18;;;;;;;0.55;0.55;;;17.80;99.90;;;;;;4414940;32;20101;-66
2021/08/20 03:51:43;;;;;;;0.30;0.30;;;17.90;99.90;;;;;;4402317;32;20532;-67
2021/08/20 03:54:10;;;;;;;1.70;0.68;;;17.90;99.90;;;;;;4415941;32;20069;-66
2021/08/20 03:56:36;;;;;;;2.92;0.50;;;17.90;99.90;;;;;;4401228;32;20082;-66
2021/08/20 03:59:02;;;;;;;0.30;0.30;;;17.90;99.90;;;;;;4414217;32;20511;-66
2021/08/20 04:01:27;;;;;;;0.70;0.55;;;17.80;99.90;;;;;;4414605;32;20077;-67
2021/08/20 04:03:53;;;;;;;0.30;0.30;;;17.90;99.90;;;;;;4414480;32;20077;-67
2021/08/20 04:06:18;;;;;;;0.60;0.60;;;17.90;99.90;;;;;;4401384;32;20082;-67
2021/08/20 04:08:44;;;;;;;0.60;0.50;;;17.90;99.90;;;;;;4414976;32;20061;-66
2021/08/20 04:11:11;;;;;;;0.40;0.40;;;17.80;99.90;;;;;;4414897;32;20069;-66
2021/08/20 04:13:37;;;;;;;0.43;0.43;;;17.80;99.90;;;;;;4414812;32;20061;-67
2021/08/20 04:16:03;;;;;;;0.43;0.43;;;17.80;99.90;;;;;;4414494;32;20065;-66
2021/08/20 04:18:28;;;;;;;0.40;0.40;;;17.90;99.90;;;;;;4415377;32;20527;-67
2021/08/20 04:20:54;;;;;;;0.40;0.40;;;17.90;99.90;;;;;;4398399;32;20131;-67
2021/08/20 04:23:19;;;;;;;0.40;0.40;;;17.90;99.90;;;;;;4408202;32;20069;-66
2021/08/20 04:25:45;;;;;;;0.43;0.43;;;17.80;99.90;;;;;;4414002;32;20066;-67
2021/08/20 04:28:10;;;;;;;0.32;0.32;;;17.90;99.90;;;;;;4414708;32;20085;-67
2021/08/20 04:30:36;;;;;;;20.90;0.50;;;17.90;99.90;;;;;;4400354;32;20095;-66
2021/08/20 04:33:03;;;;;;;0.45;0.43;;;17.80;99.90;;;;;;4414340;32;20116;-66
2021/08/20 04:35:28;;;;;;;0.55;0.45;;;17.80;99.90;;;;;;4389716;32;20169;-67
2021/08/20 04:37:54;;;;;;;0.50;0.50;;;17.80;99.90;;;;;;4400251;32;20503;-68
2021/08/20 04:40:19;;;;;;;0.75;0.75;;;17.70;99.90;;;;;;4406819;32;20132;-67
2021/08/20 04:42:45;;;;;;;0.62;0.62;;;17.70;99.90;;;;;;4401334;32;20065;-68
2021/08/20 04:45:14;;;;;;;0.30;0.30;;;17.60;99.90;;;;;;4401360;32;20073;-67
2021/08/20 04:47:39;;;;;;;2.25;0.95;;;17.60;99.90;;;;;;4414771;32;20086;-67
2021/08/20 04:50:05;;;;;;;0.82;0.70;;;17.70;99.90;;;;;;4401044;32;20066;-67
2021/08/20 04:52:31;;;;;;;0.52;0.52;;;17.70;99.90;;;;;;4413574;32;20081;-67
2021/08/20 04:54:56;;;;;;;0.30;0.30;;;17.80;99.90;;;;;;4414486;32;20069;-67
2021/08/20 04:57:22;;;;;;;0.50;0.37;;;17.80;99.90;;;;;;4407803;32;20062;-66
2021/08/20 04:59:47;;;;;;;0.40;0.40;;;17.80;99.90;;;;;;4409741;32;20421;-67
2021/08/20 05:02:13;;;;;;;0.90;0.50;;;17.80;99.90;;;;;;4406906;32;20077;-67
2021/08/20 05:04:38;;;;;;;3.67;0.60;;;17.70;99.90;;;;;;4410661;32;20093;-67
2021/08/20 05:07:04;;;;;;;1.00;0.80;;;17.80;99.90;;;;;;4411612;32;20121;-66
2021/08/20 05:09:32;;;;;;;4.30;0.60;;;17.80;99.90;;;;;;4396667;32;20069;-66
2021/08/20 05:11:59;;;;;;;0.57;0.57;;;17.90;99.90;;;;;;4395501;32;20118;-67
2021/08/20 05:14:25;;;;;;;2.50;1.15;;;17.80;99.90;;;;;;4411030;32;20117;-66
2021/08/20 05:16:50;;;;;;;0.73;0.52;;;17.70;99.90;;;;;;4398774;32;20105;-67
2021/08/20 05:19:16;;;;;;;0.40;0.40;;;17.60;99.90;;;;;;4402892;32;20094;-66
2021/08/20 05:21:41;;;;;;;0.52;0.35;;;17.70;99.90;;;;;;4409527;32;20515;-67
2021/08/20 05:24:07;;;;;;;3.40;0.60;;;17.70;99.90;;;;;;4412001;32;20076;-67
2021/08/20 05:26:32;;;;;;;0.88;0.73;;;17.80;99.90;;;;;;4396896;32;20103;-67
2021/08/20 05:28:58;;;;;;;0.52;0.52;;;17.80;99.90;;;;;;4403310;32;20574;-66
2021/08/20 05:31:23;;;;;;;0.50;0.50;;;17.70;99.90;;;;;;4388251;32;20081;-67
2021/08/20 05:33:49;;;;;;;0.32;0.32;;;17.70;99.90;;;;;;4402794;32;20676;-66
2021/08/20 05:36:14;;;;;;;0.90;0.65;;;17.70;99.90;;;;;;4403259;32;20086;-66
2021/08/20 05:38:40;;;;;;;1.30;0.40;;;17.70;99.90;;;;;;4406030;32;20098;-66
2021/08/20 05:41:06;;;;;;;0.40;0.40;;;17.80;99.90;;;;;;4405247;32;20128;-66
2021/08/20 05:43:32;;;;;;;0.40;0.40;;;17.70;99.90;;;;;;4407394;32;20561;-65
2021/08/20 05:45:58;;;;;;;3.83;0.85;;;17.70;99.90;;;;;;4405616;32;20070;-67
2021/08/20 05:48:23;;;;;;;1.27;0.68;;;17.70;99.90;;;;;;4393084;32;20539;-69
2021/08/20 05:50:49;;;;;;;3.10;1.05;;;17.70;99.90;;;;;;4405664;32;20074;-66
2021/08/20 05:53:14;;;;;;;0.30;0.30;;;17.70;99.90;;;;;;4401443;32;20100;-66
2021/08/20 05:55:40;;;;;;;1.08;0.70;;;17.70;99.90;;;;;;4400825;32;20085;-67
2021/08/20 05:58:06;;;;;;;0.60;0.60;;;17.70;99.90;;;;;;4404970;32;20074;-66
2021/08/20 06:00:32;;;;;;;0.70;0.43;;;17.70;99.90;;;;;;4398227;32;20084;-66
2021/08/20 06:02:58;;;;;;;1.58;0.82;;;17.80;99.90;;;;;;4400679;32;20078;-66
2021/08/20 06:05:23;;;;;;;0.60;0.60;;;17.90;99.90;;;;;;4391167;32;20681;-65
2021/08/20 06:07:49;;;;;;;1.95;0.90;;;17.90;99.90;;;;;;4403329;32;20117;-66
2021/08/20 06:10:16;;;;;;;0.60;0.60;;;17.90;99.90;;;;;;4401157;32;20106;-65
2021/08/20 06:12:42;;;;;;;1.48;0.57;;;18.00;99.90;;;;;;4402901;32;20514;-66
2021/08/20 06:15:08;;;;;;;2.67;1.00;;;18.00;99.90;;;;;;4402944;32;20140;-66
2021/08/20 06:17:34;;;;;;;0.55;0.55;;;18.10;99.90;;;;;;4407146;32;20165;-66
2021/08/20 06:19:59;;;;;;;0.47;0.47;;;18.10;99.90;;;;;;4407189;32;20160;-65
2021/08/20 06:22:25;;;;;;;1.15;0.70;;;18.20;99.90;;;;;;4404914;32;81052;-65
2021/08/20 06:24:50;;;;;;;3.00;0.70;;;18.20;99.90;;;;;;4402722;32;20126;-65
2021/08/20 06:27:16;;;;;;;0.32;0.32;;;18.30;99.90;;;;;;4406611;32;20121;-66
2021/08/20 06:29:41;;;;;;;1.65;0.90;;;18.30;99.90;;;;;;4405186;32;20064;-68
2021/08/20 06:32:07;;;;;;;1.85;1.15;;;18.30;99.90;;;;;;4406939;32;20431;-67
2021/08/20 06:34:33;;;;;;;1.95;0.70;;;18.30;99.90;;;;;;4406462;32;20062;-65
2021/08/20 06:36:59;;;;;;;0.65;0.50;;;18.30;99.90;;;;;;4404568;32;20109;-66
2021/08/20 06:39:24;;;;;;;1.33;1.23;;;18.30;99.90;;;;;;4391362;32;20339;-66
2021/08/20 06:41:50;;;;;;;0.50;0.50;;;18.30;99.90;;;;;;4388681;32;20093;-66
2021/08/20 06:44:15;;;;;;;0.70;0.70;;;18.30;99.90;;;;;;4384207;32;20113;-66
2021/08/20 06:46:41;;;;;;;0.73;0.73;;;18.30;99.90;;;;;;4402192;32;20507;-66
2021/08/20 06:49:07;;;;;;;3.37;0.85;;;18.30;99.90;;;;;;4403391;32;20114;-66
2021/08/20 06:51:33;;;;;;;1.52;0.80;;;18.40;99.90;;;;;;4395456;32;20135;-67
2021/08/20 06:53:59;;;;;;;0.40;0.40;;;18.40;99.90;;;;;;4406115;32;20077;-66
2021/08/20 06:56:25;;;;;;;0.70;0.70;;;18.40;99.90;;;;;;4406021;32;20066;-66
2021/08/20 06:58:50;;;;;;;0.95;0.75;;;18.50;99.90;;;;;;4408970;32;20090;-66
2021/08/20 07:01:16;;;;;;;0.47;0.47;;;18.50;99.90;;;;;;4395686;32;20331;-66
2021/08/20 07:03:42;;;;;;;0.62;0.62;;;18.50;99.90;;;;;;4409053;32;20519;-66
2021/08/20 07:06:07;;;;;;;0.52;0.52;;;18.50;99.90;;;;;;4409132;32;20069;-66
2021/08/20 07:08:33;;;;;;;0.50;0.50;;;18.50;99.90;;;;;;4407430;32;20122;-65
2021/08/20 07:10:58;;;;;;;2.70;1.15;;;18.50;99.90;;;;;;4404319;32;20057;-66
2021/08/20 07:13:24;;;;;;;1.25;0.80;;;18.50;99.90;;;;;;4402275;32;20093;-66
2021/08/20 07:15:49;;;;;;;0.70;0.70;;;18.50;99.90;;;;;;4395387;32;20078;-66
2021/08/20 07:18:15;;;;;;;0.60;0.60;;;18.50;99.90;;;;;;4408701;32;20065;-64
2021/08/20 07:20:41;;;;;;;2.55;0.70;;;18.60;99.90;;;;;;4404766;32;20389;-65
2021/08/20 07:23:06;;;;;;;1.83;0.77;;;18.70;99.90;;;;;;4406114;32;20095;-65
2021/08/20 07:25:32;;;;;;;0.47;0.47;;;18.80;99.90;;;;;;4408661;32;20086;-65
2021/08/20 07:27:57;;;;;;;0.55;0.50;;;18.70;99.90;;;;;;4403395;32;20432;-65
2021/08/20 07:30:24;;;;;;;1.83;0.70;;;18.60;99.90;;;;;;4407977;32;20083;-65
2021/08/20 07:32:49;;;;;;;0.65;0.65;;;18.60;99.90;;;;;;4396122;32;20205;-65
2021/08/20 07:35:16;;;;;;;0.88;0.80;;;18.60;99.90;;;;;;4401639;32;20077;-66
2021/08/20 07:37:41;;;;;;;7.40;1.60;;;18.60;99.90;;;;;;4404849;32;20069;-67
2021/08/20 07:40:08;;;;;;;1.98;0.82;;;18.60;99.90;;;;;;4404169;32;20069;-65
2021/08/20 07:42:34;;;;;;;0.70;0.70;;;18.60;99.90;;;;;;4408734;32;20141;-65
2021/08/20 07:45:00;;;;;;;0.70;0.70;;;18.60;99.90;;;;;;4387523;32;20176;-65
2021/08/20 07:47:27;;;;;;;1.80;1.15;;;18.70;99.90;;;;;;4401760;32;20410;-66
2021/08/20 07:49:52;;;;;;;0.50;0.50;;;18.60;99.90;;;;;;4389819;32;20087;-66
2021/08/20 07:52:18;;;;;;;0.60;0.50;;;18.70;99.90;;;;;;4394529;32;20172;-65
2021/08/20 07:54:43;;;;;;;4.10;1.00;;;18.40;99.90;;;;;;4401327;32;20542;-66
2021/08/20 07:57:09;;;;;;;0.40;0.40;;;18.10;99.90;;;;;;4401566;32;20082;-65
2021/08/20 07:59:34;;;;;;;0.40;0.40;;;18.00;99.90;;;;;;4403912;32;20553;-65
2021/08/20 08:02:00;;;;;;;3.20;1.02;;;17.80;99.90;;;;;;4403138;32;20101;-65
2021/08/20 08:04:25;;;;;;;1.80;0.90;;;17.60;99.90;;;;;;4390601;32;20531;-65
2021/08/20 08:06:51;;;;;;;0.77;0.77;;;17.50;99.90;;;;;;4402971;32;20069;-65
2021/08/20 08:09:16;;;;;;;0.85;0.85;;;17.40;99.90;;;;;;4398479;32;20089;-65
2021/08/20 08:11:42;;;;;;;0.50;0.50;;;17.30;99.90;;;;;;4402069;32;20934;-65
2021/08/20 08:14:07;;;;;;;0.43;0.40;;;17.40;99.90;;;;;;4400933;32;20065;-65
2021/08/20 08:16:35;;;;;;;0.40;0.40;;;17.40;99.90;;;;;;4404746;32;20631;-65
2021/08/20 08:19:03;;;;;;;0.37;0.37;;;17.50;99.90;;;;;;4393852;32;20061;-65
2021/08/20 08:21:29;;;;;;;0.40;0.40;;;17.60;99.90;;;;;;4404958;32;20077;-66
2021/08/20 08:23:55;;;;;;;0.40;0.40;;;17.60;99.90;;;;;;4406504;32;20161;-65
2021/08/20 08:26:23;;;;;;;0.40;0.40;;;17.70;99.90;;;;;;4407904;32;20078;-65
2021/08/20 08:28:48;;;;;;;1.45;0.80;;;17.70;99.90;;;;;;4390129;32;20120;-65
2021/08/20 08:31:14;;;;;;;1.83;1.20;;;17.70;99.90;;;;;;4402810;32;20238;-65
2021/08/20 08:33:39;;;;;;;1.25;0.75;;;17.70;99.90;;;;;;4405535;32;20133;-65
2021/08/20 08:36:05;;;;;;;2.00;0.77;;;17.50;99.90;;;;;;4410472;32;20069;-65
2021/08/20 08:38:30;;;;;;;0.52;0.52;;;17.40;99.90;;;;;;4391593;32;20093;-65
2021/08/20 08:40:57;;;;;;;1.05;0.90;;;17.40;99.90;;;;;;4403407;32;20124;-65
2021/08/20 08:43:22;;;;;;;0.50;0.50;;;17.40;99.90;;;;;;4398462;32;20082;-65
2021/08/20 08:45:48;;;;;;;0.73;0.60;;;17.40;99.90;;;;;;4387470;32;20086;-64
2021/08/20 08:48:14;;;;;;;2.15;0.88;;;17.40;99.90;;;;;;4391939;32;20085;-64
2021/08/20 08:50:44;;;;;;;0.70;0.70;;;17.40;99.90;;;;;;4392962;32;20385;-66
2021/08/20 08:53:10;;;;;;;0.65;0.65;;;17.40;99.90;;;;;;4394267;32;20555;-62
2021/08/20 08:55:35;;;;;;;1.95;0.60;;;17.40;99.90;;;;;;4394381;32;20131;-64
2021/08/20 08:58:06;;;;;;;2.60;0.80;;;17.40;99.90;;;;;;4404149;32;20538;-64
2021/08/20 09:00:37;;;;;;;0.77;0.77;;;17.40;99.90;;;;;;4394747;32;20069;-64
2021/08/20 09:03:04;;;;;;;0.50;0.50;;;17.40;99.90;;;;;;4391374;32;20061;-64
2021/08/20 09:05:47;;;;;;;4.30;1.35;;;17.40;99.90;;;;;;4392869;32;20108;-64
2021/08/20 09:08:14;;;;;;;2.75;1.17;;;17.50;99.90;;;;;;4390232;32;20082;-64
2021/08/20 09:10:53;;;;;;;5.05;0.95;;;17.60;99.90;;;;;;4381733;32;20082;-64
2021/08/20 09:13:20;;;;;;;0.43;0.43;;;17.70;99.90;;;;;;4386078;32;20078;-64
2021/08/20 09:15:46;;;;;;;3.70;1.20;;;17.70;99.90;;;;;;4386928;32;20158;-64
2021/08/20 09:18:21;;;;;;;0.77;0.60;;;17.80;99.90;;;;;;4384238;32;20681;-64
2021/08/20 09:20:48;;;;;;;0.62;0.62;;;17.90;99.90;;;;;;4401687;32;20077;-64
2021/08/20 09:23:23;;;;;;;0.52;0.52;;;17.70;99.90;;;;;;4384338;32;20188;-64
2021/08/20 09:25:49;;;;;;;0.55;0.55;;;17.70;99.90;;;;;;4383236;32;20098;-64
2021/08/20 09:28:18;;;;;;;0.77;0.73;;;17.60;99.90;;;;;;4386034;32;20584;-63
2021/08/20 09:31:07;;;;;;;0.68;0.52;;;17.70;99.90;;;;;;4402321;32;20098;-64
2021/08/20 09:33:38;;;;;;;0.62;0.52;;;17.70;99.90;;;;;;4385158;32;20137;-64
2021/08/20 09:36:10;;;;;;;0.85;0.68;;;17.80;99.90;;;;;;4403099;32;20537;-65
2021/08/20 09:38:38;;;;;;;1.05;0.77;;;17.80;99.90;;;;;;4388302;32;20129;-63
2021/08/20 09:41:07;;;;;;;1.23;1.12;;;17.90;99.90;;;;;;4389039;32;20057;-64
2021/08/20 09:43:34;;;;;;;0.70;0.60;;;17.80;99.90;;;;;;4397014;32;20421;-64
2021/08/20 09:46:03;;;;;;;1.58;0.98;;;17.90;99.90;;;;;;4386410;32;20155;-64
2021/08/20 09:48:50;;;;;;;1.10;1.00;;;18.00;99.90;;;;;;4402259;32;20101;-64
2021/08/20 09:51:35;;;;;;;0.70;0.62;;;18.20;99.90;;;;;;4386628;32;20448;-64
2021/08/20 09:54:06;;;;;;;15.10;0.80;;;18.40;99.90;;;;;;4404603;32;20097;-65
2021/08/20 09:56:32;;;;;;;2.55;1.20;;;18.40;99.90;;;;;;4391902;32;20147;-64
2021/08/20 09:59:00;;;;;;;0.30;0.30;;;18.40;99.90;;;;;;4390071;32;20073;-65
2021/08/20 10:01:28;;;;;;;0.50;0.50;;;18.40;99.90;;;;;;4388765;32;20085;-64
2021/08/20 10:03:56;;;;;;;0.70;0.70;;;18.50;99.90;;;;;;4402537;32;20268;-66
2021/08/20 10:06:24;;;;;;;1.65;0.85;;;18.70;99.90;;;;;;4404773;32;20525;-65
2021/08/20 10:08:50;;;;;;;1.27;1.17;;;18.80;99.90;;;;;;4394533;32;20194;-65
2021/08/20 10:11:17;;;;;;;1.37;1.00;;;18.90;99.90;;;;;;4405307;32;20444;-65
2021/08/20 10:13:45;;;;;;;0.60;0.60;;;18.90;99.90;;;;;;4408121;32;20485;-65
2021/08/20 10:16:12;;;;;;;1.48;0.85;;;19.00;99.90;;;;;;4386453;32;20094;-67
2021/08/20 10:18:38;;;;;;;2.53;0.40;;;19.20;99.90;;;;;;4398952;32;20085;-65
2021/08/20 10:21:04;;;;;;;0.37;0.37;;;19.30;99.90;;;;;;4402691;32;20147;-67
2021/08/20 10:23:32;;;;;;;0.43;0.32;;;19.60;99.90;;;;;;4401132;32;20475;-65
2021/08/20 10:25:57;;;;;;;2.65;0.77;;;19.70;99.90;;;;;;4403685;32;20132;-66
2021/08/20 10:28:24;;;;;;;1.23;0.80;;;19.70;99.90;;;;;;4400484;32;20105;-66
2021/08/20 10:30:50;;;;;;;0.20;0.20;;;19.70;99.90;;;;;;4388215;32;20407;-65
2021/08/20 10:33:29;;;;;;;0.45;0.35;;;19.90;99.90;;;;;;4402954;32;20093;-65
2021/08/20 10:35:56;;;;;;;0.55;0.55;;;20.00;99.90;;;;;;4391532;32;20106;-66
2021/08/20 10:38:43;;;;;;;0.30;0.30;;;20.10;99.90;;;;;;4406243;32;20092;-64
2021/08/20 10:41:24;;;;;;;2.03;1.00;;;20.30;99.90;;;;;;4396590;32;20066;-64
2021/08/20 10:43:51;;;;;;;;;;;20.20;99.90;;;;;;4405554;32;20097;-66
2021/08/20 10:46:35;;;;;;;0.30;0.30;;;20.00;99.90;;;;;;4402549;32;19961;-66
2021/08/20 10:49:21;;;;;;;2.75;0.73;;;19.80;99.90;;;;;;4404798;32;20140;-65
2021/08/20 10:51:52;;;;;;;0.62;0.62;;;19.80;99.90;;;;;;4381759;32;20066;-66
2021/08/20 10:54:24;;;;;;;0.30;0.30;;;19.90;99.90;;;;;;4387975;32;20427;-66
2021/08/20 10:56:50;;;;;;;0.80;0.77;;;20.00;99.90;;;;;;4401602;32;20081;-64
2021/08/20 10:59:37;;;;;;;0.85;0.50;;;19.80;99.90;;;;;;4405041;32;20066;-65
2021/08/20 11:02:21;;;;;;;0.57;0.47;;;20.00;99.90;;;;;;4381628;32;20105;-65
2021/08/20 11:05:05;;;;;;;0.32;0.32;;;20.40;99.90;;;;;;4409096;32;20121;-66
2021/08/20 11:07:46;;;;;;;0.30;0.30;;;20.80;99.90;;;;;;4404964;32;20077;-66
2021/08/20 11:10:14;;;;;;;0.50;0.50;;;21.30;99.90;;;;;;4408581;32;20140;-66
2021/08/20 11:12:44;;;;;;;0.30;0.30;;;21.70;99.90;;;;;;4406774;32;20102;-66
2021/08/20 11:15:23;;;;;;;0.43;0.30;;;21.90;99.90;;;;;;4394141;32;20069;-66
2021/08/20 11:17:52;;;;;;;0.73;0.32;;;22.40;99.90;;;;;;4404674;32;20077;-66
2021/08/20 11:20:21;;;;;;;0.20;0.20;;;22.60;99.90;;;;;;4405667;32;20082;-66
2021/08/20 11:23:09;;;;;;;0.10;0.10;;;22.50;99.90;;;;;;4405176;32;20455;-65
2021/08/20 11:25:37;;;;;;;0.40;0.40;;;22.10;99.90;;;;;;4397646;32;20124;-66
2021/08/20 11:28:06;;;;;;;0.35;0.35;;;21.90;99.90;;;;;;4411809;32;20077;-66
2021/08/20 11:30:35;;;;;;;0.22;0.22;;;21.70;99.90;;;;;;4391881;32;20296;-65
2021/08/20 11:33:12;;;;;;;7.40;0.62;;;21.90;99.90;;;;;;4380678;32;20101;-65
2021/08/20 11:35:37;;;;;;;0.32;0.32;;;22.60;99.90;;;;;;4406489;32;20121;-65
2021/08/20 11:38:03;;;;;;;0.77;0.60;;;23.40;99.90;;;;;;4393005;32;20180;-66
2021/08/20 11:40:28;;;;;;;0.52;0.50;;;23.90;99.90;;;;;;4409517;32;20120;-65
2021/08/20 11:43:10;;;;;;;1.95;0.32;;;23.70;99.90;;;;;;4404798;32;20079;-65
2021/08/20 11:45:37;;;;;;;0.10;0.10;;;23.80;99.90;;;;;;4382558;32;20098;-67
2021/08/20 11:48:03;;;;;;;0.43;0.30;;;24.20;99.90;;;;;;4388069;32;20095;-66
2021/08/20 11:50:30;;;;;;;0.20;0.20;;;24.10;99.50;;;;;;4403395;32;20105;-65
2021/08/20 11:52:58;;;;;;;0.65;0.50;;;23.50;99.90;;;;;;4390134;32;20098;-66
2021/08/20 11:55:23;;;;;;;0.30;0.30;;;23.20;99.90;;;;;;4383204;32;20061;-65
2021/08/20 11:57:49;;;;;;;0.20;0.20;;;22.80;99.90;;;;;;4407570;32;20111;-66
2021/08/20 12:00:15;;;;;;;0.45;0.45;;;22.50;99.90;;;;;;4391942;32;20093;-65
2021/08/20 12:02:42;;;;;;;0.52;0.45;;;22.40;99.90;;;;;;4405236;32;20073;-65
2021/08/20 12:05:23;;;;;;;2.55;0.98;;;22.20;99.90;;;;;;4400937;32;20077;-65
2021/08/20 12:07:48;;;;;;;0.30;0.30;;;22.00;99.90;;;;;;4404154;32;20077;-66
2021/08/20 12:10:16;;;;;;;0.40;0.40;;;21.90;99.90;;;;;;4407445;32;20065;-65
2021/08/20 12:12:44;;;;;;;1.00;0.82;;;21.80;99.90;;;;;;4404753;32;20078;-64
2021/08/20 12:15:11;;;;;;;0.30;0.30;;;21.70;99.90;;;;;;4406834;32;20129;-65
2021/08/20 12:17:37;;;;;;;0.47;0.47;;;21.70;99.90;;;;;;4404897;32;20569;-65
2021/08/20 12:20:19;;;;;;;3.28;1.33;;;21.60;99.90;;;;;;4392547;32;20111;-65
2021/08/20 12:22:49;;;;;;;1.67;0.70;;;21.40;99.90;;;;;;4407947;32;20082;-65
2021/08/20 12:25:21;;;;;;;0.40;0.40;;;21.20;99.90;;;;;;4409360;32;20078;-65
2021/08/20 12:27:47;;;;;;;0.45;0.45;;;21.10;99.90;;;;;;4404631;32;20530;-67
2021/08/20 12:30:15;;;;;;;5.25;0.93;;;20.90;99.90;;;;;;4389920;32;20053;-66
2021/08/20 12:32:43;;;;;;;1.45;0.75;;;20.90;99.90;;;;;;4400647;32;20085;-66
2021/08/20 12:35:17;;;;;;;0.40;0.40;;;20.80;99.90;;;;;;4403587;32;20266;-66
2021/08/20 12:38:05;;;;;;;2.83;0.45;;;20.70;99.90;;;;;;4391574;32;20471;-66
2021/08/20 12:40:34;;;;;;;0.30;0.30;;;20.60;99.90;;;;;;4392970;32;20058;-66
2021/08/20 12:43:00;;;;;;;0.28;0.28;;;20.50;99.90;;;;;;4400949;32;20105;-66
2021/08/20 12:45:25;;;;;;;0.45;0.45;;;20.50;99.90;;;;;;4391317;32;20074;-65
2021/08/20 12:48:09;;;;;;;0.93;0.55;;;20.70;99.90;;;;;;4405733;32;20082;-64